地図

経路データ

SID SEASON NUMBER BASIN SUBBASIN NAME ISO_TIME NATURE LAT LON WMO_WIND WMO_PRES WMO_AGENCY TRACK_TYPE DIST2LAND LANDFALL IFLAG USA_AGENCY USA_ATCF_ID USA_LAT USA_LON USA_RECORD USA_STATUS USA_WIND USA_PRES USA_SSHS USA_R34_NE USA_R34_SE USA_R34_SW USA_R34_NW USA_R50_NE USA_R50_SE USA_R50_SW USA_R50_NW USA_R64_NE USA_R64_SE USA_R64_SW USA_R64_NW USA_POCI USA_ROCI USA_RMW USA_EYE TOKYO_LAT TOKYO_LON TOKYO_GRADE TOKYO_WIND TOKYO_PRES TOKYO_R50_DIR TOKYO_R50_LONG TOKYO_R50_SHORT TOKYO_R30_DIR TOKYO_R30_LONG TOKYO_R30_SHORT TOKYO_LAND CMA_LAT CMA_LON CMA_CAT CMA_WIND CMA_PRES HKO_LAT HKO_LON HKO_CAT HKO_WIND HKO_PRES NEWDELHI_LAT NEWDELHI_LON NEWDELHI_GRADE NEWDELHI_WIND NEWDELHI_PRES NEWDELHI_CI NEWDELHI_DP NEWDELHI_POCI REUNION_LAT REUNION_LON REUNION_TYPE REUNION_WIND REUNION_PRES REUNION_TNUM REUNION_CI REUNION_RMW REUNION_R34_NE REUNION_R34_SE REUNION_R34_SW REUNION_R34_NW REUNION_R50_NE REUNION_R50_SE REUNION_R50_SW REUNION_R50_NW REUNION_R64_NE REUNION_R64_SE REUNION_R64_SW REUNION_R64_NW BOM_LAT BOM_LON BOM_TYPE BOM_WIND BOM_PRES BOM_TNUM BOM_CI BOM_RMW BOM_R34_NE BOM_R34_SE BOM_R34_SW BOM_R34_NW BOM_R50_NE BOM_R50_SE BOM_R50_SW BOM_R50_NW BOM_R64_NE BOM_R64_SE BOM_R64_SW BOM_R64_NW BOM_ROCI BOM_POCI BOM_EYE BOM_POS_METHOD BOM_PRES_METHOD NADI_LAT NADI_LON NADI_CAT NADI_WIND NADI_PRES WELLINGTON_LAT WELLINGTON_LON WELLINGTON_WIND WELLINGTON_PRES DS824_LAT DS824_LON DS824_STAGE DS824_WIND DS824_PRES TD9636_LAT TD9636_LON TD9636_STAGE TD9636_WIND TD9636_PRES TD9635_LAT TD9635_LON TD9635_WIND TD9635_PRES TD9635_ROCI NEUMANN_LAT NEUMANN_LON NEUMANN_CLASS NEUMANN_WIND NEUMANN_PRES MLC_LAT MLC_LON MLC_CLASS MLC_WIND MLC_PRES USA_GUST BOM_GUST BOM_GUST_PER REUNION_GUST REUNION_GUST_PER USA_SEAHGT USA_SEARAD_NE USA_SEARAD_SE USA_SEARAD_SW USA_SEARAD_NW STORM_SPEED STORM_DIR
1953081S09062 1953 17 SI MM NOT_NAMED 1953-03-22 06:00:00 TS -9.20000 62.1000 main 1308 1269 O________OO___ jtwc_sh SH181953 -9.20000 62.1000 -1 -9.20000 62.1000 TC 25 -9.20000 62.1000 7 8 219
1953081S09062 1953 17 SI MM NOT_NAMED 1953-03-22 09:00:00 TS -9.49954 61.8527 main 1269 1226 P________PP___ SH181953 -9.48754 61.8501 -1 -9.48754 61.8501 TC 25 -9.52354 61.8581 7 8 218
1953081S09062 1953 17 SI MM NOT_NAMED 1953-03-22 12:00:00 TS -9.81587 61.6043 main 1226 1187 O________OP___ jtwc_sh SH181953 -9.80000 61.6000 -1 -9.80000 61.6000 TC 25 -9.84761 61.6128 7 8 217
1953081S09062 1953 17 SI MM NOT_NAMED 1953-03-22 15:00:00 TS -10.1576 61.3537 main 1177 1134 P________PP___ SH181953 -10.1500 61.3500 -1 -10.1500 61.3500 TC 25 -10.1729 61.3611 7 9 216
1953081S09062 1953 17 SI MM NOT_NAMED 1953-03-22 18:00:00 TS -10.5000 61.1000 main 1134 1095 O________OO___ jtwc_sh SH181953 -10.5000 61.1000 -1 -10.5000 61.1000 TC 25 -10.5000 61.1000 1 8 217
1953081S09062 1953 17 SI MM NOT_NAMED 1953-03-22 21:00:00 TS -10.8097 60.8476 main 1092 1054 P________PP___ SH181953 -10.8000 60.8574 -1 -10.8000 60.8574 TC 25 -10.8290 60.8281 1 8 219
1953081S09062 1953 17 SI MM NOT_NAMED 1953-03-23 00:00:00 TS -11.1192 60.5833 main 1054 1012 O________OP___ jtwc_sh SH181953 -11.1000 60.6000 -1 -11.1000 60.6000 TC 25 -11.1575 60.5499 1 9 220
1953081S09062 1953 17 SI MM NOT_NAMED 1953-03-23 03:00:00 TS -11.4607 60.2906 main 1001 960 P________PP___ SH181953 -11.4500 60.3000 -1 -11.4500 60.3000 TC 25 -11.4822 60.2718 1 9 220
1953081S09062 1953 17 SI MM NOT_NAMED 1953-03-23 06:00:00 TS -11.8000 60.0000 main 960 923 O________OO___ jtwc_sh SH181953 -11.8000 60.0000 -1 -11.8000 60.0000 TC 25 -11.8000 60.0000 1 8 219
1953081S09062 1953 17 SI MM NOT_NAMED 1953-03-23 09:00:00 TS -12.1127 59.7465 main 920 882 P________PP___ SH181953 -12.1075 59.7424 -1 -12.1075 59.7424 TC 25 -12.1232 59.7548 1 8 218
1953081S09062 1953 17 SI MM NOT_NAMED 1953-03-23 12:00:00 TS -12.4124 59.5049 main 882 845 O________OP___ jtwc_sh SH181953 -12.4000 59.5000 -1 -12.4000 59.5000 TC 25 -12.4372 59.5147 1 8 218
1953081S09062 1953 17 SI MM NOT_NAMED 1953-03-23 15:00:00 TS -12.7208 59.2608 main 845 806 P________PP___ SH181953 -12.7150 59.2575 -1 -12.7150 59.2575 TC 25 -12.7326 59.2673 1 8 220
1953081S09062 1953 17 SI MM NOT_NAMED 1953-03-23 18:00:00 TS -13.0000 59.0000 main 806 779 O________OO___ jtwc_sh SH181953 -13.0000 59.0000 -1 -13.0000 59.0000 TC 25 -13.0000 59.0000 1 7 228
1953081S09062 1953 17 SI MM NOT_NAMED 1953-03-23 21:00:00 TS -13.2074 58.7059 main 779 753 P________PP___ SH181953 -13.2150 58.7149 -1 -13.2150 58.7149 TC 25 -13.1923 58.6879 1 7 237
1953081S09062 1953 17 SI MM NOT_NAMED 1953-03-24 00:00:00 TS -13.3875 58.3856 main 753 728 O________OP___ jtwc_sh SH181953 -13.4000 58.4000 -1 -13.4000 58.4000 TC 25 -13.3626 58.3567 1 7 241
1953081S09062 1953 17 SI MM NOT_NAMED 1953-03-24 03:00:00 TS -13.5639 58.0406 main 728 705 P________PP___ SH181953 -13.5700 58.0499 -1 -13.5700 58.0499 TC 25 -13.5516 58.0222 1 8 238
1953081S09062 1953 17 SI MM NOT_NAMED 1953-03-24 06:00:00 TS -13.8000 57.7000 main 705 671 O________OO___ jtwc_sh SH181953 -13.8000 57.7000 -1 -13.8000 57.7000 TC 25 -13.8000 57.7000 1 9 226
1953081S09062 1953 17 SI MM NOT_NAMED 1953-03-24 09:00:00 TS -14.1671 57.3896 main 660 616 P________PP___ SH181953 -14.1625 57.3850 -1 -14.1625 57.3850 TC 25 -14.1765 57.3987 1 10 216
1953081S09062 1953 17 SI MM NOT_NAMED 1953-03-24 12:00:00 TS -14.6041 57.1043 main 616 574 O________OP___ jtwc_sh SH181953 -14.6000 57.1000 -1 -14.6000 57.1000 TC 25 -14.6124 57.1129 1 11 211
1953081S09062 1953 17 SI MM NOT_NAMED 1953-03-24 15:00:00 TS -15.0657 56.8385 main 564 523 P________PP___ SH181953 -15.0650 56.8350 -1 -15.0650 56.8350 TC 25 -15.0672 56.8456 1 10 209
1953081S09062 1953 17 SI MM NOT_NAMED 1953-03-24 18:00:00 TS -15.5000 56.6000 main 523 494 O________OO___ jtwc_sh SH181953 -15.5000 56.6000 -1 -15.5000 56.6000 TC 25 -15.5000 56.6000 1 9 210
1953081S09062 1953 17 SI MM NOT_NAMED 1953-03-24 21:00:00 TS -15.8224 56.3848 main 494 468 P________PP___ SH181953 -15.8150 56.3923 -1 -15.8150 56.3923 TC 25 -15.8374 56.3698 1 7 213
1953081S09062 1953 17 SI MM NOT_NAMED 1953-03-25 00:00:00 TS -16.1166 56.1873 main 468 443 O________OP___ jtwc_sh SH181953 -16.1000 56.2000 -1 -16.1000 56.2000 TC 25 -16.1498 56.1618 1 7 212
1953081S09062 1953 17 SI MM NOT_NAMED 1953-03-25 03:00:00 TS -16.4441 55.9860 main 443 410 P________PP___ SH181953 -16.4350 55.9925 -1 -16.4350 55.9925 TC 25 -16.4624 55.9730 1 8 208
1953081S09062 1953 17 SI MM NOT_NAMED 1953-03-25 06:00:00 TS -16.8000 55.8000 main 410 381 O________OO___ jtwc_sh SH181953 -16.8000 55.8000 -1 -16.8000 55.8000 TC 25 -16.8000 55.8000 1 8 204
1953081S09062 1953 17 SI MM NOT_NAMED 1953-03-25 09:00:00 TS -17.1874 55.6321 main 381 350 P________PP___ SH181953 -17.1850 55.6424 -1 -17.1850 55.6424 TC 25 -17.1922 55.6114 1 9 201
1953081S09062 1953 17 SI MM NOT_NAMED 1953-03-25 12:00:00 TS -17.6042 55.4801 main 350 329 O________OP___ jtwc_sh SH181953 -17.6000 55.5000 -1 -17.6000 55.5000 TC 25 -17.6125 55.4404 1 9 199
1953081S09062 1953 17 SI MM NOT_NAMED 1953-03-25 15:00:00 TS -18.0455 55.3231 main 329 279 P________PP___ SH181953 -18.0425 55.3351 -1 -18.0425 55.3351 TC 25 -18.0516 55.2991 1 9 197
1953081S09062 1953 17 SI MM NOT_NAMED 1953-03-25 18:00:00 TS -18.5000 55.2000 main 279 235 O________OO___ jtwc_sh SH181953 -18.5000 55.2000 -1 -18.5000 55.2000 TC 25 -18.5000 55.2000 1 9 192
1953081S09062 1953 17 SI MM NOT_NAMED 1953-03-25 21:00:00 TS -18.9435 55.1268 main 235 180 P________PP___ SH181953 -18.9500 55.1200 -1 -18.9500 55.1200 TC 25 -18.9305 55.1405 1 9 186
1953081S09062 1953 17 SI MM NOT_NAMED 1953-03-26 00:00:00 TS -19.3900 55.1083 main 180 135 O________OP___ jtwc_sh SH181953 -19.4000 55.1000 -1 -19.4000 55.1000 TC 25 -19.3699 55.1249 1 9 0
1953081S09062 1953 17 SI MM NOT_NAMED 1953-03-26 03:00:00 TS -19.8364 55.1340 main 135 78 P________PP___ SH181953 -19.8425 55.1275 -1 -19.8425 55.1275 TC 25 -19.8243 55.1469 1 9 174
1953081S09062 1953 17 SI MM NOT_NAMED 1953-03-26 06:00:00 TS -20.3000 55.2000 main 78 22 O________OO___ jtwc_sh SH181953 -20.3000 55.2000 -1 -20.3000 55.2000 TC 25 -20.3000 55.2000 1 10 172
1953081S09062 1953 17 SI MM NOT_NAMED 1953-03-26 09:00:00 TS -20.7966 55.2813 main 22 0 P________PP___ SH181953 -20.7850 55.2925 -1 -20.7850 55.2925 TC 25 -20.8196 55.2590 1 10 170
1953081S09062 1953 17 SI MM NOT_NAMED 1953-03-26 12:00:00 TS -21.3191 55.3825 main 0 0 O________OP___ jtwc_sh SH181953 -21.3000 55.4000 -1 -21.3000 55.4000 TC 25 -21.3574 55.3475 1 11 170
1953081S09062 1953 17 SI MM NOT_NAMED 1953-03-26 15:00:00 TS -21.8688 55.4825 main 56 56 P________PP___ SH181953 -21.8575 55.4926 -1 -21.8575 55.4926 TC 25 -21.8915 55.4622 1 11 169
1953081S09062 1953 17 SI MM NOT_NAMED 1953-03-26 18:00:00 TS -22.4000 55.6000 main 111 111 O________OO___ jtwc_sh SH181953 -22.4000 55.6000 -1 -22.4000 55.6000 TC 25 -22.4000 55.6000 1 10 166
1953081S09062 1953 17 SI MM NOT_NAMED 1953-03-26 21:00:00 TS -22.8705 55.7424 main 168 168 P________PP___ SH181953 -22.8725 55.7351 -1 -22.8725 55.7351 TC 25 -22.8666 55.7571 1 9 162
1953081S09062 1953 17 SI MM NOT_NAMED 1953-03-27 00:00:00 TS -23.2992 55.9097 main 214 214 O________OP___ jtwc_sh SH181953 -23.3000 55.9000 -1 -23.3000 55.9000 TC 25 -23.2977 55.9292 1 9 159
1953081S09062 1953 17 SI MM NOT_NAMED 1953-03-27 03:00:00 TS -23.7050 56.0987 main 262 262 P________PP___ SH181953 -23.7051 56.0922 -1 -23.7051 56.0922 TC 25 -23.7049 56.1117 1 9 156
1953081S09062 1953 17 SI MM NOT_NAMED 1953-03-27 06:00:00 TS -24.1000 56.3000 main 310 O________OO___ jtwc_sh SH181953 -24.1000 56.3000 -1 -24.1000 56.3000 TC 25 -24.1000 56.3000 7 9 155

IBTrACS Databaseについて

本データベースは、米国NOAAが公開する1842年以降の世界の熱帯低気圧のベストトラックデータアーカイブInternational Best Track Archive for Climate Stewardship (IBTrACS)を、ウェブで閲覧しやすい形式に変換したものです。

最終更新日:2021-11-26